• Join
  • Home Weather

    Search Airports

    EUROPE TAF 24 HOURS - 0447 UTC

    RocketRoute Online Flight Planning, FREE trial

    Germany   France   Benelux   Austria   Switzerland   Spain   Portugal   Italy   Baltic   Nordic   Other

    Goto METARs

     

    United Kingdom - 24 Jul 2017 - 0447 UTC

    ABERDEEN DYCEEGPDAMD 240328Z 2403/2424 34012KT 9999 SCT008 BKN015 TEMPO 2403/2409 7000 BKN007 BECMG 2417/2420 BKN012 TEMPO 2420/2424 BKN007
    BELFAST ALDERGROVEEGAAAMD 240251Z 2403/2424 34007KT 3000 BR BKN001 PROB30 TEMPO 2403/2405 7000 NSW SCT004 BECMG 2405/2408 9999 NSW FEW030 PROB40 2421/2424 BKN008
    BIGGIN HILLEGKB231659Z 2318/2321 25008KT 9999 SCT020 TEMPO 2318/2321 7000 SHRA PROB30 TEMPO 2318/2319 4000 +SHRA BKN012
    BOURNEMOUTHEGHH231958Z 2321/2406 29009KT 9999 FEW025 PROB30 TEMPO 2402/2406 8000 -RA BKN012
    BRISTOLEGGD232302Z 2400/2424 27007KT 9999 FEW012 SCT025 TEMPO 2401/2406 8000 -RA BKN008 BECMG 2403/2406 33010KT
    CARDIFFEGFF232301Z 2400/2424 29012KT 9999 FEW014 PROB30 TEMPO 2400/2403 BKN014
    DONCASTER SHEFFIELDEGCNAMD 240256Z 2402/2424 34008KT 9999 BKN015 TEMPO 2402/2412 6000 RA -RADZ BKN007 PROB30 TEMPO 2402/2409 BKN004
    DURHAM TEES VALLEYEGNV231656Z 2318/2321 32009KT 9999 SCT012 BKN020 TEMPO 2318/2321 3000 RA BR BKN012 PROB40 TEMPO 2318/2321 +RA BKN007
    EAST MIDLANDSEGNXAMD 240226Z 2402/2424 35014KT 9999 FEW012 SCT025 TEMPO 2402/2409 36017G27KT 7000 RA BKN012 PROB30 TEMPO 2402/2406 BKN008 PROB30 TEMPO 2409/2412 BKN014
    EDINBURGHEGPH232303Z 2400/2424 VRB03KT 9999 FEW030 SCT045 PROB30 2400/2407 4000 BR BECMG 2408/2411 08010KT
    EXETEREGTE232259Z 2400/2402 34005KT 9999 FEW015
    FARNBOROUGHEGLF231356Z 2315/2319 26012KT 9999 SCT020 TEMPO 2315/2319 7000 SHRA PROB30 TEMPO 2315/2319 27015G25KT 4000 +SHRA BKN012
    GLASGOWEGPF232257Z 2400/2424 31005KT 9999 SCT035 PROB30 2400/2406 8000 PROB30 TEMPO 2412/2419 6000 SHRA
    GUERNSEYEGJB240155Z 2403/2412 30014KT 9999 SCT012 PROB30 TEMPO 2403/2407 BKN011
    HUMBERSIDEEGNJAMD 240358Z 2403/2412 35012KT 9999 BKN010 TEMPO 2403/2412 1500 RADZ BKN003
    INVERNESSEGPE240203Z 2403/2412 04005KT 9999 SCT012 TEMPO 2403/2405 5000 BR BKN009
    JERSEYEGJJ240155Z 2403/2412 30014KT 9999 SCT012 TEMPO 2403/2407 BKN011
    KIRKWALLEGPA240203Z 2403/2412 02010KT 9999 SCT007 BKN012 TEMPO 2403/2409 8000 BKN006 PROB40 TEMPO 2403/2409 4000 BR BKN004 TEMPO 2409/2412 SCT012 BKN016
    LEEDS BRADFORDEGNMAMD 240343Z 2403/2424 36014KT 9999 SCT010 BKN016 TEMPO 2403/2409 4000 -RADZ BKN004 TEMPO 2409/2412 8000 BKN008 BECMG 2419/2422 36004KT PROB30 2421/2424 BKN012
    LIVERPOOLEGGP232301Z 2400/2424 33012KT 9999 FEW020
    LONDON CITYEGLCAMD 240306Z 2403/2412 26010KT 9999 BKN030 BECMG 2403/2406 BKN012 TEMPO 2403/2412 8000 RA BKN008 PROB40 TEMPO 2403/2410 4000 RADZ BECMG 2405/2408 33012KT
    LONDON GATWICKEGKKAMD 240407Z 2404/2506 26005KT 9999 FEW015 BKN020 TEMPO 2404/2412 8000 -RA BKN012 PROB30 TEMPO 2404/2409 4000 RADZ BKN008 BECMG 2406/2409 32012KT PROB30 TEMPO 2412/2418 8000 -RA PROB30 TEMPO 2500/2506 BKN012
    LONDON HEATHROWEGLLAMD 240409Z 2404/2506 31008KT 9999 SCT022 TEMPO 2404/2411 7000 -RA BKN012 PROB30 TEMPO 2404/2408 4500 RADZ BKN008 TEMPO 2411/2418 33015G26KT
    LONDON LUTONEGGWAMD 240138Z 2401/2424 27007KT 9999 SCT030 BECMG 2401/2404 33012KT BKN008 TEMPO 2401/2415 8000 RA PROB40 TEMPO 2401/2407 3000 RADZ BKN003 PROB30 TEMPO 2409/2416 33015G25KT BECMG 2412/2415 BKN012 BECMG 2415/2418 SCT020
    LONDON STANSTEDEGSSAMD 240350Z 2403/2506 26006KT 7000 -RA BKN006 TEMPO 2403/2408 2000 RADZ BKN003 BECMG 2406/2409 32012KT BECMG 2408/2411 9999 NSW BKN012 PROB30 TEMPO 2409/2417 33015G25KT TEMPO 2411/2415 8000 RA BECMG 2415/2418 SCT015 PROB30 TEMPO 2418/2506 8000 -RA BKN006
    LYDDEGMD240156Z 2403/2412 28007KT 9999 SCT040 TEMPO 2404/2412 8000 RA BKN014 PROB30 TEMPO 2405/2410 4000 RADZ BKN009 BECMG 2406/2409 34012KT
    MANCHESTEREGCC232301Z 2400/2506 33009KT 9999 FEW012 SCT018 TEMPO 2400/2407 BKN012 TEMPO 2500/2506 8000 BKN010
    MANSTONEGMH 
    NEWCASTLEEGNT232257Z 2400/2424 35012KT 9999 BKN007 PROB40 2400/2410 6000 -RA BKN004 PROB30 TEMPO 2400/2410 01015G25KT BECMG 2409/2412 SCT015 PROB30 TEMPO 2422/2424 BKN010
    NORWICHEGSH240156Z 2403/2412 26007KT 9999 SCT030 TEMPO 2403/2412 8000 RA BKN009 PROB30 TEMPO 2404/2410 4000 RADZ BKN004 BECMG 2406/2409 32011KT
    PRESTWICKEGPK232257Z 2400/2424 30005KT 9999 FEW040
    SHOREHAMEGKA231356Z 2315/2318 23015KT 9999 SCT020 TEMPO 2315/2318 23018G28KT 7000 SHRA PROB30 TEMPO 2315/2318 4000 +SHRA
    SOUTHAMPTONEGHI231656Z 2318/2322 26009KT 9999 FEW025 TEMPO 2318/2319 7000 SHRA PROB30 TEMPO 2318/2320 4000 +SHRA BKN014 BKN020CB
    SOUTHENDEGMC240156Z 2403/2412 27007KT 9999 FEW015 SCT025 TEMPO 2403/2412 8000 RA BECMG 2404/2407 34014KT BKN012 PROB30 TEMPO 2406/2410 4000 RADZ BKN007
    WICKEGPCAMD 240332Z 2403/2412 35009KT 9999 SCT007 BKN015 TEMPO 2403/2409 7000 BKN007
    GIBRALTARLXGB240414Z 2406/2415 25012KT 9999 FEW025 BECMG 2408/2411 20015KT 520001 PROB30 TEMPO 2313/2315 19018G28KT 560001
    Goto METARs

     

    Germany - 24 Jul 2017 - 0447 UTC

    BRANDENBURGEDDB232300Z 2400/2424 VRB03KT CAVOK BECMG 2403/2406 12005KT BECMG 2411/2414 05007KT BECMG 2421/2424 RA
    BREMENEDDW232300Z 2400/2424 VRB03KT 9999 FEW020 TEMPO 2405/2413 04007KT SHRA BKN014CB TEMPO 2413/2424 01007KT 4000 RA BKN008 SCT020CB
    DRESDENEDDC232300Z 2400/2424 21005KT CAVOK BECMG 2406/2409 09007KT BECMG 2417/2420 30005KT RA BECMG 2418/2421 BKN009 TEMPO 2420/2424 4000 RA BR BKN004
    DUSSELDORFEDDL232300Z 2400/2506 17008KT 9999 SCT035 TEMPO 2403/2409 RA PROB30 TEMPO 2406/2410 BKN012 BECMG 2408/2412 31005KT TEMPO 2409/2418 SHRA BKN020CB PROB30 TEMPO 2413/2416 TSRA BECMG 2422/2501 RA BKN008
    FRANKFURT HAHNEDFH232300Z 2400/2424 20005KT CAVOK BECMG 2400/2402 13005KT TEMPO 2401/2408 RA PROB40 TEMPO 2403/2408 2500 -RADZ BKN004 BECMG 2406/2408 30008KT TEMPO 2410/2424 SHRA BKN012 BKN015TCU PROB30 TEMPO 2410/2418 28015G25KT TSRA BKN008 BKN015CB
    FRANKFURT MAINEDDF232300Z 2400/2506 18005KT CAVOK BECMG 2400/2403 10005KT TEMPO 2403/2410 RA BKN030 PROB30 TEMPO 2406/2410 4000 -RADZ BKN010 BECMG 2410/2412 28010KT TEMPO 2412/2506 SHRA SCT015 BKN025TCU PROB30 TEMPO 2412/2418 28015G25KT TSRA BKN025CB
    HAMBURGEDDH232300Z 2400/2506 VRB03KT CAVOK BECMG 2409/2411 07006KT PROB30 TEMPO 2409/2415 SHRA BKN014CB TEMPO 2415/2506 RA BKN012 SCT020CB BECMG 2420/2422 01006KT PROB40 TEMPO 2502/2506 3500 RA BKN007
    HANNOVEREDDV232300Z 2400/2424 VRB03KT CAVOK TEMPO 2405/2412 12007KT SHRA BKN014CB TEMPO 2412/2418 4500 RA BKN009 SCT015CB
    HERINGSDORFEDAH231700Z 2318/2403 24004KT 9999 FEW030 TEMPO 2322/2403 2000 BR
    KARLSRUHE BADEN BADENEDSB240300Z 2404/2424 VRB03KT 9999 BKN030 TEMPO 2404/2410 RA PROB30 TEMPO 2404/2410 4000 -RADZ SCT009 BKN014 BECMG 2404/2407 22010KT TEMPO 2410/2420 SHRA SCT030CB PROB30 TEMPO 2412/2418 27015G25KT TSRA BKN025CB
    KASSEL CALDENEDVK231100Z 2312/2321 22010G20KT 9999 SCT045 BECMG 2318/2320 21005KT
    KOLN BONNEDDKAMD 240250Z 2402/2506 13004KT 9999 RA SCT035 TEMPO 2403/2409 NSW PROB30 TEMPO 2405/2408 BKN010 BECMG 2409/2412 31006KT NSW TEMPO 2412/2418 SHRA BKN020CB PROB30 TEMPO 2413/2416 TSRA BECMG 2500/2503 RA BKN009
    LAAGEETNL240420Z 2405/2414 08005KT 9999 NSW FEW015 SCT080 BKN300 PROB30 2405/2406 VRB02KT 4000 BR FEW080 BKN300 BY ETGL
    LEIPZIG HALLEEDDP232300Z 2400/2424 21005KT CAVOK BECMG 2403/2406 15005KT BECMG 2412/2415 30005KT TEMPO 2415/2424 RA BECMG 2417/2420 BKN012 PROB40 TEMPO 2420/2424 BKN009
    LUBECK BLANKENSEEEDHL231700Z 2318/2321 24008KT 9999 SCT030
    MUNCHENEDDMCOR 232345Z 2400/2506 16003KT 9999 SCT040 PROB30 TEMPO 2400/2408 4000 SHRA BKN030TCU BECMG 2409/2411 26012KT PROB40 TEMPO 2410/2412 30015G30KT 4000 TSRA SCT020 BKN030CB TEMPO 2412/2416 30015G25KT RA BKN012 BECMG 2417/2420 25007KT TEMPO 2503/2506 BKN010
    MUNSTER OSNABRUCKEDDG232300Z 2400/2424 VRB03KT 9999 SCT040 TEMPO 2406/2412 RA BKN013 BECMG 2410/2413 36005KT PROB30 TEMPO 2412/2417 RA BECMG 2417/2419 RA BECMG 2419/2422 30005KT BECMG 2422/2424 BKN008
    NURNBERGEDDN232300Z 2400/2424 10003KT 9999 SCT040 BECMG 2407/2409 20007KT TEMPO 2409/2414 RA BKN012 BECMG 2412/2414 27012KT PROB30 TEMPO 2415/2418 28015G30KT SHRA BKN030TCU BECMG 2417/2420 25006KT
    PADERBORN LIPPSTADTEDLP232300Z 2400/2424 16005KT 9999 SCT035 BECMG 2405/2408 RA BECMG 2408/2410 3000 BKN010 BECMG 2410/2413 30006KT TEMPO 2412/2424 2000 +RA BKN005 BECMG 2421/2424 BKN003
    SAARBRUCKENEDDR232300Z 2400/2424 20005KT CAVOK BECMG 2400/2402 10005KT TEMPO 2400/2409 RA PROB40 TEMPO 2404/2409 4000 -RADZ BKN005 BECMG 2406/2408 26010KT TEMPO 2411/2424 SHRA SCT012 BKN020TCU PROB30 TEMPO 2411/2418 28015G25KT TSRA BKN010 BKN015CB
    STUTTGARTEDDS232300Z 2400/2424 VRB03KT CAVOK TEMPO 2406/2411 RA BECMG 2408/2411 25012KT TEMPO 2411/2420 28015G25KT TEMPO 2414/2424 SHRA SCT030TCU PROB30 TEMPO 2414/2420 TSRA SCT030CB
    SYLTEDXW231700Z 2318/2321 23012KT 9999 SCT020 PROB30 TEMPO 2318/2321 26015G30KT SHRA BKN020CB
    TEGELEDDT232300Z 2400/2424 VRB03KT CAVOK BECMG 2403/2406 12005KT BECMG 2411/2414 05007KT BECMG 2421/2424 RA
    Goto METARs

     

    France - 24 Jul 2017 - 0448 UTC

    AIX LES BAINSLFLB232300Z 2400/2424 VRB02KT CAVOK BECMG 2402/2406 SHRA SCT030TCU BKN040
    ANGLETLFBZAMD 240116Z 2401/2424 26009KT 9999 BKN015 TEMPO 2401/2406 3000 RA OVC004 SCT010TCU TEMPO 2406/2414 30015G25KT 3000 SHRA BKN010TCU BECMG 2414/2416 BKN030
    AUVERGNELFLC240200Z 2403/2503 23009KT 9999 BKN055 TEMPO 2403/2407 27015G25KT 4000 RA SCT030TCU OVC050 BECMG 2405/2407 30012KT TEMPO 2407/2503 -SHRA SCT025TCU BKN040
    BALE MULHOUSELFSB232301Z 2400/2424 19005KT 9999 FEW040 SCT065 BKN120 TEMPO 2404/2408 4000 RA BECMG 2408/2410 26013KT FEW030TCU TEMPO 2411/2424 29015G25KT 4500 SHRA SCT035CB BKN050 PROB30 TEMPO 2415/2418 TSRA
    BELLEGARDELFBLAMD 240049Z 2400/2424 23009KT 9999 BKN010 TEMPO 2400/2408 26015G25KT 2000 RA BKN002 BECMG 2408/2410 BKN013 BECMG 2410/2413 BKN025
    BIARDLFBIAMD 240135Z 2401/2424 33008KT 9999 BKN012 TEMPO 2401/2404 4000 -RADZ OVC005 BECMG 2408/2410 BKN030 TEMPO 2412/2420 -SHRA BKN045
    BLAGNACLFBO232300Z 2400/2506 25012KT 9999 BKN025 TEMPO 2404/2410 3000 -RA BKN010 TEMPO 2412/2424 30015G25KT TEMPO 2500/2506 BKN010
    BRETAGNELFRBAMD 240348Z 2403/2506 30006KT 9999 SCT010 TEMPO 2403/2407 BKN008
    BRONLFLY232300Z 2400/2424 VRB02KT 9999 BKN050 TEMPO 2401/2406 VRB12KT RA SCT040TCU OVC045 BECMG 2406/2408 32012KT TEMPO 2408/2424 -SHRA SCT030TCU BKN040
    CARPIQUETLFRK231400Z 2315/2324 26010KT 9999 BKN020 PROB30 TEMPO 2315/2320 5000 RA BECMG 2318/2320 25005KT BECMG 2322/2324 26010KT PROB30 TEMPO 2322/2324 BKN008
    COTE D AZURLFMN240200Z 2403/2509 36006KT CAVOK BECMG 2407/2409 12008KT FEW040CB SCT090 BECMG 2410/2412 26020G30KT BECMG 2416/2418 09015G25KT CAVOK BECMG 2419/2421 36010KT BECMG 2507/2509 12010KT
    ENTZHEIMLFST232300Z 2400/2424 18008KT 9999 FEW040 BKN060 BECMG 2402/2405 -RA TEMPO 2405/2407 4000 RA BKN014 BECMG 2407/2409 28010KT TEMPO 2411/2418 28015G30KT 4000 SHRA SCT030CB BECMG 2418/2421 22005KT TEMPO 2422/2424 -SHRA SCT030TCU
    GARONSLFTW240200Z 2403/2503 31010KT CAVOK TEMPO 2410/2420 31020G30KT
    LANN BIHOUELFRH232300Z 2400/2424 33005KT CAVOK TEMPO 2400/2403 BKN009 PROB30 2403/2406 1000 MIFG BKN001 BECMG 2407/2409 BKN015 BECMG 2410/2412 33010G20KT CAVOK TEMPO 2412/2415 SCT015TCU SCT020 BECMG 2420/2422 BKN010
    LE BOURGETLFPB232300Z 2400/2424 29005KT CAVOK PROB30 TEMPO 2402/2408 BKN008 PROB40 TEMPO 2404/2406 4000 BR BECMG 2408/2410 BKN013 TEMPO 2410/2418 30012G25KT 4000 -SHRA SCT013TCU BECMG 2418/2420 BKN020 TX19/2415Z TN12/2405Z
    LESQUINLFQQ232300Z 2400/2506 20005KT 9999 BKN030 TEMPO 2400/2405 BKN008 BECMG 2405/2407 3000 RA OVC012 BECMG 2410/2412 32010KT 9999 SCT030 TEMPO 2412/2418 4000 SHRA BKN025TCU TEMPO 2500/2506 OVC007
    LE TOUQUETLFAT231400Z 2315/2324 27013KT 9999 BKN025 PROB30 2315/2317 4000 SHRA BKN030TCU
    MEDITERRANEELFMT240200Z 2403/2503 31010KT CAVOK BECMG 2410/2412 31020G30KT TEMPO 2414/2421 31030G40KT
    MERIGNACLFBDAMD 240140Z 2401/2506 29010KT 9999 BKN008 PROB40 TEMPO 2401/2404 4000 -RA OVC004 BECMG 2404/2406 BKN015 BECMG 2408/2410 BKN035 TEMPO 2422/2506 BKN015 TX22/2415Z TN17/2406Z
    NANTES ATLANTIQUELFRS232300Z 2400/2506 32008KT 9999 BKN020 TEMPO 2400/2409 BKN012 PROB30 TEMPO 2502/2506 3000 BR BKN007
    NAPOLEON BONAPARTELFKJ240200Z 2403/2503 05004KT CAVOK BECMG 2406/2408 28010KT BECMG 2411/2412 30010G22KT BECMG 2500/2503 VRB05KT
    PARIS CHARLES DE GAULLELFPG232300Z 2400/2506 29005KT CAVOK PROB30 TEMPO 2402/2408 BKN008 PROB40 TEMPO 2404/2406 4000 BR BECMG 2408/2410 BKN013 TEMPO 2410/2415 4000 -SHRA SCT013TCU TEMPO 2413/2418 30012G25KT BECMG 2418/2420 BKN020 TX19/2415Z TN12/2405Z
    PARIS ORLYLFPO232300Z 2400/2506 VRB03KT 9999 -RA SCT015 BKN050 PROB30 TEMPO 2400/2401 4000 RA BKN007 BECMG 2401/2403 33007KT BKN020 PROB30 TEMPO 2403/2407 BKN008 TEMPO 2410/2421 30015G25KT -SHRA SCT017 BKN025TCU TEMPO 2502/2506 BKN012
    PLEURTUITLFRD232300Z 2400/2424 28008KT 9999 BKN020 TEMPO 2400/2408 BKN008 TEMPO 2406/2422 30015G25KT BECMG 2419/2421 BKN008
    PORETTALFKB240200Z 2403/2503 VRB03KT 9999 FEW020 SCT100 OVC230 BECMG 2406/2408 14010KT BECMG 2418/2420 24004KT TEMPO 2420/2424 28010G20KT TX31/2412Z TN21/2404Z
    PROVENCELFML240200Z 2403/2509 30013KT CAVOK BECMG 2403/2407 32017G27KT TEMPO 2410/2509 32025G37KT TX31/2412Z TN21/2404Z
    RIVESALTESLFMP240200Z 2403/2503 31010KT CAVOK BECMG 2409/2411 31015G30KT TEMPO 2412/2419 31030G45KT
    SAINT EXUPERYLFLL232300Z 2400/2506 VRB02KT CAVOK TEMPO 2401/2408 16010KT 4000 RA BKN040 PROB30 TEMPO 2404/2408 SCT030TCU BECMG 2406/2408 34012KT PROB40 TEMPO 2408/2506 4000 SHRA PROB30 TEMPO 2412/2418 SCT035TCU PROB30 TEMPO 2503/2506 BKN014
    ST JACQUESLFRN232300Z 2400/2424 29008KT 9999 BKN030 TEMPO 2400/2408 BKN008 TEMPO 2412/2418 32015G25KT BECMG 2422/2424 BKN008
    TILLELFOB232300Z 2400/2424 27005KT 9999 BKN033 BECMG 2404/2407 BKN025 TEMPO 2412/2416 SHRA BKN013TCU
    TOUSSUS LE NOBLELFPN231700Z 2318/2403 24013KT 9999 BKN030 TEMPO 2318/2401 4000 -RA BKN012
    VAL DE LOIRELFOTAMD 232322Z 2400/2424 21010KT 9999 SCT015 BKN050 TEMPO 2400/2401 6000 -RA BKN012 PROB40 TEMPO 2400/2401 2500 RA BKN004 BECMG 2401/2403 33007KT BKN020 PROB30 TEMPO 2401/2408 BKN008 BECMG 2408/2411 29010KT SCT025 PROB40 TEMPO 2411/2419 -SHRA SCT030TCU BKN140 TEMPO 2422/2424 BKN012
    Goto METARs

     

    Benelux - 24 Jul 2017 - 0448 UTC

    BRUSSELS NATLEBBR232301Z 2400/2506 24006KT 9999 FEW020CB SCT040 TEMPO 2400/2414 28015G25KT 4000 SHRA PROB30 TEMPO 2409/2414 2000 TSRA BECMG 2413/2415 31010KT
    BRUSSELS SOUTHEBCI232301Z 2400/2506 24006KT 9999 FEW020CB SCT040 TEMPO 2400/2415 28015G25KT 4000 SHRA PROB30 TEMPO 2409/2415 2000 TSRA BECMG 2413/2415 32010KT
    DEURNEEBAW240201Z 2403/2412 23006KT 9999 FEW020CB SCT040 TEMPO 2403/2412 25015G25KT 4000 SHRA PROB30 TEMPO 2403/2412 2000 TSRA BECMG 2411/2412 32010KT
    LIEGEEBLG232301Z 2400/2506 23006KT 9999 FEW020CB SCT040 TEMPO 2409/2419 30015G25KT 4000 SHRA PROB30 TEMPO 2409/2419 2000 TSRA BECMG 2417/2419 29010KT
    OOSTENDEEBOS232301Z 2400/2506 24010KT 9999 FEW020CB SCT040 TEMPO 2400/2410 30015G25KT 4000 SHRA PROB30 TEMPO 2400/2410 2000 TSRA BECMG 2403/2405 33012KT
    EINDHOVENEHEH232321Z 2400/2506 22006KT 9999 CAVOK PROB40 TEMPO 2400/2407 VRB03KT 2500 BR MIFG TEMPO 2400/2421 SCT025CB BKN040 PROB30 TEMPO 2400/2421 22012G25KT 3000 TSRA SCT014 SCT020CB BKN030 BECMG 2412/2415 32006KT SCT030 BKN050 PROB30 2500/2506 1500 BCFG
    EELDEEHGGAMD 240347Z 2403/2506 16005KT 5000 BR BKN006 BECMG 2403/2406 9999 NSW BKN015 TEMPO 2403/2404 6000 SHRA SCT020CB BKN030 PROB30 TEMPO 2403/2404 18012G22KT 2500 TSRA BKN020CB BKN030 TEMPO 2404/2504 6000 SHRA RA FEW015CB BKN020 PROB30 TEMPO 2412/2418 01012G22KT 4000 TSRA SCT020CB BKN030 BECMG 2504/2506 34010KT
    MAASTRICHTEHBK232308Z 2400/2506 22005KT CAVOK PROB30 TEMPO 2400/2408 6000 RA SHRA BKN015 SCT020CB TEMPO 2408/2424 6000 SHRA SCT020CB BKN030 PROB40 TEMPO 2409/2418 27012G22KT 2500 TSRA SCT015CB BKN020 PROB30 TEMPO 2421/2423 4000 BR SCT008 BKN012 BECMG 2423/2502 4000 BR SCT003 BKN005 PROB30 TEMPO 2500/2506 RA SHRA FEW015CB
    ROTTERDAMEHRD232307Z 2400/2506 19007KT 9999 SCT025 TEMPO 2400/2418 6000 SHRA SCT025CB PROB30 TEMPO 2400/2408 24010G20KT 4000 TSRA SCT020CB BKN030 BECMG 2411/2414 33010KT BECMG 2418/2421 35007KT PROB30 TEMPO 2418/2505 7000 SHRA RA SCT025CB
    SCHIPHOLEHAM232307Z 2400/2506 19007KT 9999 SCT025 TEMPO 2400/2418 6000 SHRA SCT025CB PROB30 TEMPO 2400/2408 24010G20KT 4000 TSRA SCT020CB BKN030 BECMG 2411/2414 33010KT BECMG 2418/2421 35007KT PROB30 TEMPO 2418/2505 7000 SHRA RA SCT025CB
    LUXEMBOURGELLX232300Z 2400/2506 23005KT 6000 RA BKN012 TEMPO 2400/2402 31005KT 3500 +RA BKN010 BECMG 2406/2408 9999 NSW BKN030 TEMPO 2410/2417 30010G25KT 4000 TSRA BKN025CB TEMPO 2503/2506 4500 BR BKN008
    Goto METARs

     

    Austria - 24 Jul 2017 - 0448 UTC

    GRAZ INTLLOWG232315Z 2400/2424 35006KT 9999 FEW050 SCT120 TX23/2414Z TN18/2403Z BECMG 2400/2402 6000 -RA FEW002 BKN030 PROB40 TEMPO 2400/2408 2000 BCFG SCT004 BKN012 TEMPO 2403/2411 VRB15G25KT TSRA SCT040 FEW050CB BKN070 BECMG 2411/2413 15005KT 9999 NSW SCT020 SCT120 PROB30 TEMPO 2417/2420 20012KT 4000 TSRA FEW030CB BKN040 BECMG 2420/2423 35012KT 9999 FEW040 BKN120
    INNSBRUCKLOWI232315Z 2400/2424 07004KT 9999 SCT030 BKN050 TX19/2412Z TN13/2500Z TEMPO 2400/2416 27010KT SHRA FEW020 BKN050 FEW050TCU PROB40 TEMPO 2400/2406 27015G25KT 5000 TSRA BKN040 FEW040CB PROB30 TEMPO 2410/2413 27015G30KT TSRA BKN050 FEW050CB BECMG 2417/2419 SCT040 SCT070
    KLAGENFURT WORTHERSEELOWK232315Z 2400/2424 VRB02KT 9999 SCT050 BKN120 TX21/2415Z TN18/2406Z TEMPO 2400/2413 VRB10G20KT 4000 TSRA SCT010 BKN040 FEW045CB TEMPO 2413/2422 12008KT 6000 SHRA SCT030 BKN050 FEW050TCU PROB30 TEMPO 2418/2420 TSRA BKN030 FEW040CB PROB40 TEMPO 2422/2424 2000 BCFG BKN010
    LINZ INTLLOWLAMD 240023Z 2400/2424 09004KT 9999 SCT050 BKN100 TX20/2412Z TN15/2500Z TEMPO 2400/2413 SHRA SCT015 FEW020CB BKN025 BECMG 2410/2413 27010KT TEMPO 2413/2417 28020G35KT 6000 TSRA SCT035CB BKN050
    SALZBURGLOWS232315Z 2400/2424 16005KT 9999 SCT040 BKN060 TX20/2415Z TN15/2421Z TEMPO 2400/2418 29008KT SHRA SCT030TCU BKN040 PROB30 TEMPO 2405/2410 30015G25KT 4000 TSRA SCT020CB BKN030 BECMG 2408/2410 30008KT TEMPO 2413/2418 29013KT TEMPO 2418/2424 -SHRA BKN030
    VIENNA SCHWECHATLOWW232315Z 2400/2506 30005KT CAVOK TX23/2412Z TN16/2505Z PROB30 TEMPO 2400/2410 29010KT 9999 SHRA FEW060CB BKN120 FM241000 16007KT 9999 FEW060CB SCT070 BKN120 PROB40 TEMPO 2410/2418 5000 TSRA SCT050CB BKN060 FM241800 29018G28KT CAVOK TEMPO 2418/2420 30025G38KT 9999 SHRA BKN040TCU
    W NEUSTADT DIAMOND HQLOAN231125Z 2312/2321 30010KT 9999 FEW040 BKN090 TEMPO 2312/2315 32015G25KT FEW050CB SCT060 PROB30 TEMPO 2314/2320 33015G25KT 5000 TSRA SCT050CB BKN060
    ZELTWEGLOXZ 
    Goto METARs

     

    Switzerland - 24 Jul 2017 - 0448 UTC

    APLNACHLSMA 
    BASELLFSB232301Z 2400/2424 19005KT 9999 FEW040 SCT065 BKN120 TEMPO 2404/2408 4000 RA BECMG 2408/2410 26013KT FEW030TCU TEMPO 2411/2424 29015G25KT 4500 SHRA SCT035CB BKN050 PROB30 TEMPO 2415/2418 TSRA
    BERNLSZB240225Z 2403/2412 VRB03KT 9999 SHRA TEMPO 2408/2412 NSW BECMG 2410/2412 26012KT
    BUOCHSLSZC 
    DUBENDORFLSMD 
    EMMENLSME 
    GALLEN-ALTENRHEINLSZR240225Z 2403/2412 VRB03KT 9999 BKN040 TEMPO 2406/2412 SHRA BECMG 2411/2412 30012KT
    GENEVALSGG240225Z 2403/2509 23010KT 9999 SCT050 BKN080 TX20/2415Z TN17/2404Z TN12/2504Z BECMG 2403/2406 25015G25KT SHRA FEW010 FEW040TCU BKN050 BECMG 2409/2412 25010KT NSW SCT040 BKN060 TEMPO 2412/2509 SHRA
    GRENCHENLSZG231425Z 2315/2324 28003KT 9999 BKN050 PROB30 2315/2318 28013G25KT
    LES EPLATURESLSGC231425Z 2315/2324 26011KT 9999 FEW025 BECMG 2316/2318 VRB03KT
    LOCARNOLSZL240225Z 2403/2412 09010KT 9999 +SHRA SCT045TCU BKN060 BECMG 2403/2405 NSW PROB40 TEMPO 2403/2406 TSRA SCT040CB TEMPO 2406/2412 SHRA
    LUGANOLSZA240225Z 2403/2412 VRB03KT 9999 BKN050 PROB40 TEMPO 2403/2412 20012KT TSRA SCT050CB
    MEIRINGENLSMM 
    PAYERNELSMP 
    SAMEDANLSZS231425Z 2315/2324 21010KT 9999 SCT060 TX19/2315Z TEMPO 2315/2317 20015G25KT PROB40 TEMPO 2315/2321 22015G30KT 3000 TSRA SCT040CB BECMG 2319/2321 VRB03KT
    SIONLSGS240225Z 2403/2412 VRB03KT 9999 FEW020 SCT060 BKN100 TEMPO 2403/2412 25010KT SHRA
    ZURICH-KLOTENLSZH240225Z 2403/2509 VRB03KT 9999 SHRA BKN040 TX18/2415Z TN13/2404Z TN12/2504Z TEMPO 2403/2509 NSW BECMG 2408/2411 27010KT TEMPO 2411/2419 30015G25KT +SHRA SCT030TCU BECMG 2418/2420 25007KT
    Goto METARs

     

    Espana - 24 Jul 2017 - 0448 UTC

    ALICANTELEAL232300Z 2400/2424 VRB03KT 9999 SCT018 TX31/2412Z TN22/2405Z PROB30 TEMPO 2400/2407 BKN010 BECMG 2408/2410 11010KT BECMG 2420/2422 VRB03KT
    ALMERIALEAM240200Z 2403/2503 VRB02KT CAVOK TX29/2412Z TN21/2406Z
    AVILESLEASAMD 240424Z 2404/2503 29012KT 4000 BR SCT004 BKN012 TX21/2415Z TN16/2405Z TEMPO 2404/2410 2500 -DZ BR BKN006 TEMPO 2404/2408 1400 DZ BCFG BKN003 TEMPO 2404/2407 0800 -RA BCFG PROB40 TEMPO 2404/2406 0150 FG VV001 PROB30 TEMPO 2404/2409 9000 NSW SCT010 BKN020 BECMG 2409/2412 35009KT 9000 NSW SCT012 BKN025 TEMPO 2420/2503 BKN012
    BADAJOZLEBZ232300Z 2400/2424 29008KT CAVOK TX37/2416Z TN17/2406Z
    BARCELONALEBL232300Z 2400/2424 33007KT 9999 SCT020 TX31/2412Z TN24/2405Z PROB30 TEMPO 2400/2406 BKN012 BECMG 2408/2410 21010KT BECMG 2415/2417 06012KT
    BILBAOLEBB232300Z 2400/2424 28008KT 9999 SCT012 BKN020 TX21/2414Z TN17/2406Z TEMPO 2400/2406 3000 -RADZ BR BKN012 TEMPO 2403/2418 34012G22KT 3000 RA SHRA BKN012 SCT020TCU
    GRANADALEGR240200Z 2403/2503 VRB02KT CAVOK TX38/2415Z TN17/2406Z
    IBIZALEIB240200Z 2403/2503 VRB03KT 9999 SCT015 TX30/2412Z TN22/2405Z PROB40 TEMPO 2403/2408 BKN012 PROB40 TEMPO 2408/2414 4000 SHRA BKN014 FEW030TCU TEMPO 2412/2418 09008KT BECMG 2420/2422 25007KT
    JEREZLEJR232300Z 2400/2424 VRB02KT CAVOK TX36/2415Z TN16/2406Z PROB40 TEMPO 2404/2409 3000 BR BKN009 TEMPO 2412/2422 29010KT
    LEONLELN240200Z 2403/2412 VRB05KT CAVOK
    MADRIDLEMD232300Z 2400/2506 01005KT CAVOK TX33/2415Z TN16/2506Z
    MALAGALEMG232300Z 2400/2424 29004KT CAVOK TX31/2414Z TN17/2406Z BECMG 2406/2408 13008KT BECMG 2419/2421 VRB02KT
    MENORCALEMH240200Z 2403/2503 01007KT 9999 SCT015 TX29/2412Z TN21/2405Z TEMPO 2408/2410 06008KT BECMG 2410/2412 19010KT BECMG 2418/2420 VRB03KT PROB30 TEMPO 2418/2502 SHRA BKN014 FEW020TCU BECMG 2422/2424 36010KT
    MURCIALELC232300Z 2400/2424 VRB02KT CAVOK TX33/2414Z TN23/2406Z PROB40 TEMPO 2404/2410 3000 BR BKN012 BECMG 2409/2411 13010KT
    PALMA MALLORCALEPA232300Z 2400/2424 VRB03KT 9999 FEW015 BKN020 TX31/2412Z TN20/2405Z BECMG 2408/2410 22010KT PROB30 TEMPO 2409/2414 SHRA FEW025TCU BECMG 2412/2414 32010KT TEMPO 2414/2416 32015G28KT BECMG 2418/2420 24007KT
    REUSLERS240200Z 2403/2503 VRB03KT 9999 FEW020 TX34/2413Z TN21/2405Z BECMG 2406/2408 29012KT TEMPO 2416/2420 29020G35KT
    SANTANDERLEXJAMD 240357Z 2403/2503 32009KT 9999 SCT012 BKN020 TX21/2415Z TN17/2503Z TEMPO 2404/2412 33015G25KT TEMPO 2403/2408 BKN012 PROB30 TEMPO 2403/2407 4000 -RADZ BKN008 PROB40 TEMPO 2407/2412 4000 RA SHRA BKN014 BKN020TCU PROB30 TEMPO 2412/2417 35015G25KT -RA SHRA BKN014 BKN020TCU
    SANTIAGOLEST232300Z 2400/2424 35008KT 9000 SCT010 BKN020 TX21/2413Z TN13/2424Z TEMPO 2400/2412 BKN010 PROB40 TEMPO 2400/2409 3000 -RADZ BR BKN003 PROB30 TEMPO 2402/2407 0800 RA BCFG BKN001 PROB40 TEMPO 2415/2419 02015G25KT
    SEVILLALEZL240200Z 2403/2503 23004KT CAVOK TX39/2416Z TN20/2406Z
    VALENCIALEVC232300Z 2400/2424 VRB03KT 9999 SCT020 TX31/2413Z TN23/2405Z BECMG 2410/2412 11010KT BECMG 2418/2420 VRB03KT
    VALLADOLIDLEVD232300Z 2400/2424 01008KT CAVOK TX28/2415Z TN13/2405Z
    VITORIALEVT232300Z 2400/2424 33008KT 9999 SCT018 BKN025 TX21/2414Z TN13/2424Z TEMPO 2400/2410 BKN012 PROB40 TEMPO 2402/2419 3000 -RA BKN008 PROB30 TEMPO 2406/2412 SHRA SCT020TCU PROB40 TEMPO 2411/2419 34015G25KT SCT020TCU TEMPO 2419/2424 BKN010
    ZARAGOZALEZG232300Z 2400/2424 30016KT 9999 FEW040 TX29/2415Z TN18/2405Z TEMPO 2402/2407 30010KT TEMPO 2414/2419 32020G32KT
    GRAN CANARIAGCLP240200Z 2403/2503 02025KT 9999 SCT030 TX27/2414Z TN21/2405Z PROB40 TEMPO 2403/2415 01025G35KT
    LANZAROTEGCRR240200Z 2403/2503 01020KT 9999 FEW020 TX29/2414Z TN21/2405Z PROB40 TEMPO 2412/2421 01022G32KT
    TENERIFE NORTEGCXO240200Z 2403/2503 31017KT 9999 SCT012 TX23/2414Z TN17/2405Z TEMPO 2403/2409 BKN008 PROB40 TEMPO 2403/2420 31018G28KT PROB40 TEMPO 2403/2409 2000 DZ BCFG BKN005
    TENERIFE SURGCTS240200Z 2403/2503 04008KT 9999 FEW030 TX28/2414Z TN22/2405Z PROB40 TEMPO 2412/2420 08020G30KT BECMG 2409/2410 08022KT
    Goto METARs

     

    Portugal - 24 Jul 2017 - 0448 UTC

    FAROLPFR232300Z 2400/2424 36008KT CAVOK BECMG 2403/2406 VRB03KT BECMG 2409/2412 23010KT BECMG 2418/2420 31012KT
    LISBOALPPT232300Z 2400/2506 34015KT 9999 SCT012 TEMPO 2400/2408 34018G28KT BKN010 BECMG 2408/2411 34020KT FEW025 TEMPO 2408/2424 34023G33KT BECMG 2500/2502 34012KT
    MADEIRALPMA232300Z 2400/2424 02017KT 9999 SCT015 TEMPO 2400/2424 01022G32KT FEW015 BKN030
    PONTA DELGADALPPD232300Z 2400/2424 VRB05KT 9999 FEW012 BKN040 TEMPO 2400/2424 SCT015 PROB30 TEMPO 2400/2410 5000 -RADZ BR SCT005 BKN010
    PORTOLPPR232300Z 2400/2424 35007KT 9999 BKN003 PROB30 TEMPO 2400/2406 3000 BR BKN001 BECMG 2406/2409 SCT008 BECMG 2409/2412 32017KT CAVOK PROB40 TEMPO 2414/2418 32020G30KT BECMG 2420/2422 35007KT
    PORTO SANTOLPPS232300Z 2400/2506 03015KT 9999 SCT015 BKN030 TEMPO 2400/2506 03018G28KT SCT015
    SANTA MARIALPAZ232300Z 2400/2506 VRB05KT 9999 FEW015 BKN040 TEMPO 2400/2506 SCT018 PROB30 TEMPO 2400/2410 5000 -RADZ BR SCT005 BKN010
    SINTRA MILITARLPST 
    Goto METARs

     

    Italia - 24 Jul 2017 - 0448 UTC

    ALGHEROLIEA232300Z 2400/2424 VRB05KT 9999 SCT030 BECMG 2409/2411 29015G25KT
    BARILIBD232300Z 2400/2424 VRB05KT CAVOK BECMG 2408/2410 06012KT BECMG 2412/2415 18014KT BECMG 2418/2420 24012KT
    BERGAMO ORIO AL SERIOLIME232300Z 2400/2424 VRB05KT 9999 SCT060 TEMPO 2400/2415 4000 TSRA BKN012CB
    BOLOGNALIPE232300Z 2400/2424 VRB05KT CAVOK BECMG 2400/2403 20013KT TEMPO 2412/2418 TSRA BECMG 2416/2418 VRB05KT
    CAPODICHINOLIRN232300Z 2400/2424 VRB04KT CAVOK BECMG 2408/2410 20012KT BECMG 2418/2420 VRB04KT
    CATANIA FONTANAROSSALICC232300Z 2400/2424 VRB05KT CAVOK BECMG 2408/2410 07012KT BECMG 2418/2420 VRB05KT
    CIAMPINOLIRA232300Z 2400/2424 VRB04KT CAVOK BECMG 2410/2412 23010KT BECMG 2418/2420 VRB04KT
    CROTONELIBC 
    ELMASLIEE232300Z 2400/2424 15010KT 9999 SCT030 TEMPO 2400/2403 SHRA BECMG 2409/2411 32015G25KT
    FALCONARALIPY232300Z 2400/2424 21008KT CAVOK BECMG 2407/2409 13012KT BECMG 2412/2415 23012KT
    FIUMICINOLIRF232300Z 2400/2506 VRB04KT 9999 SCT040 TEMPO 2400/2405 1500 BCFG BKN002 BECMG 2405/2407 16012KT
    GENOVA SESTRILIMJ232300Z 2400/2424 15012KT 9999 SCT015 BKN025 TEMPO 2408/2415 TSRA
    LAMPEDUSALICD240409Z 2405/2424 VRB05KT 9999 SCT040 2408/2410 34012KT
    LINATELIML232300Z 2400/2424 VRB05KT 9999 SCT050 TEMPO 2400/2418 3000 TSRA BKN012CB
    MALPENSALIMC232300Z 2400/2506 VRB05KT 9999 SCT050 TEMPO 2400/2415 3000 TSRA BKN012CB
    OLBIA COSTA SMERALDALIEO232300Z 2400/2424 VRB05KT 9999 SCT030 BECMG 2408/2410 25015G25KT
    PALERMOLICJ232300Z 2400/2424 VRB05KT CAVOK BECMG 2408/2410 29014KT
    PESCARALIBP232300Z 2400/2424 VRB05KT CAVOK BECMG 2408/2410 05010KT BECMG 2418/2420 24010KT
    PISALIRP232300Z 2400/2424 11005KT 9999 SCT030 BECMG 2406/2408 21015KT TEMPO 2408/2417 21015G27KT 5000 TSRA FEW020CB BKN030
    REGGIO CALABRIALICR240358Z 2405/2424 35012KT 9999 SCT040
    TORINOLIMF232300Z 2400/2424 VRB05KT 9999 SCT060 PROB40 TEMPO 2400/2412 4000 TSRA
    URBELIRU231700Z 2318/2403 VRB05KT 9999 FEW040
    VENEZIA TESSERALIPZ232300Z 2400/2506 VRB06KT 9999 SCT030 TEMPO 2400/2406 SHRA TEMPO 2410/2418 3000 TSRA BECMG 2415/2418 03013KT BECMG 2500/2503 VRB05KT
    Goto METARs

     

    Baltic - 24 Jul 2017 - 0448 UTC

    LENNART MERI TALLINNEETN232303Z 2400/2424 VRB02KT CAVOK TEMPO 2400/2405 0300 BCFG BKN002 BECMG 2406/2408 36010KT TEMPO 2411/2420 BKN015 PROB40 TEMPO 2420/2424 VRB02KT 2000 BR BKN005
    TARTUEETU232000Z 2321/2403 VRB02KT 8000 NSC TEMPO 2322/2403 0300 BCFG BKN002
    RIGA INTLEVRA240207Z 2403/2503 VRB02KT CAVOK BECMG 2405/2407 08007KT BECMG 2418/2420 VRB02KT TEMPO 2500/2503 3000 BR
    LIEPAJA INTLEVLA240201Z 2403/2503 07007KT CAVOK
    KAUNAS INTLEYKA232300Z 2400/2424 09012KT 9000 SCT015 BKN030CB TEMPO 2402/2408 3000 TSRA BKN007 BECMG 2412/2414 VRB02KT BKN015
    SIAULIAI INTLEYSA240200Z 2403/2412 04008KT 9000 BKN045 TEMPO 2403/2407 SCT030CB
    PALANGA INTLEYPA232300Z 2400/2424 06012KT 9000 SCT010 BKN030 TEMPO 2400/2403 BKN015CB TEMPO 2403/2409 BKN006
    VILNIUS INTLEYVI 
    KHRABROVOUMKK240200Z 2403/2503 36003G08MPS 9999 BKN011 TEMPO 2403/2406 VRB01MPS 3100 -SHRA BR BKN004 BKN015CB TEMPO 2406/2418 04007MPS BKN004 BKN015CB BECMG 2418/2420 06003G08MPS
    Goto METARs

     

    Nordic - 24 Jul 2017 - 0448 UTC

    DENMARK
    AALBORGEKYTAMD 240312Z 2403/2424 VRB03KT 9999 SCT006 BKN020 TEMPO 2403/2409 1800 BR BKN002 TEMPO 2409/2415 6000 -RA BKN012
    AARHUSEKAHAMD 240349Z 2403/2424 VRB05KT 0100 FG VV000 TEMPO 2403/2406 3000 BR BKN020 BECMG 2406/2408 05007KT 9999 NSW TEMPO 2408/2424 4000 BR RA BKN008
    BILLUNDEKBIAMD 240221Z 2402/2424 VRB05KT 9999 SCT020 TEMPO 2402/2406 0100 FG VV001 TEMPO 2406/2408 BKN004 TEMPO 2412/2418 SHRA BKN012 SCT020CB BECMG 2421/2423 0400 FG BKN002
    BORNHOLM RONNEEKRN240359Z 2404/2412 29007KT 9999 SCT030 TEMPO 2404/2407 2000 BR RA BKN002 TEMPO 2407/2412 4000 RA BKN005
    ESBJERGEKEB240248Z 2403/2412 06005KT 9999 SCT030 TEMPO 2410/2412 SHRA BKN012 SCT020
    KARUPEKKA240202Z 2403/2424 VRB03KT 0100 FG VV001 TEMPO 2403/2406 4000 BR BKN008 BECMG 2406/2408 9999 NSW SCT020 TEMPO 2421/2424 3000 BR BKN008
    KASTRUP COPENHAGENEKCHAMD 240320Z 2400/2424 VRB05KT 8000 BKN008 TEMPO 2403/2406 4000 BR BECMG 2406/2408 BKN015 TEMPO 2408/2424 4000 BR RA BKN008 BECMG 2408/2411 06007KT
    ODENSEEKODAMD 231450Z 2314/2316 20012KT 9999 BKN008 TEMPO 2314/2316 2500 TSRA SCT020CB
    ROSKILDEEKRK240218Z 2403/2412 VRB04KT 4000 BR NSC PROB40 2403/2406 0200 FG VV001 BECMG 2406/2408 9999 NSW TEMPO 2408/2412 4000 BR RA BKN008
    SKRYDSTRUPEKSP240202Z 2403/2424 VRB03KT 9999 FEW230 TEMPO 2403/2406 0500 BCFG BKN003 TEMPO 2410/2416 6000 -SHRA SCT030CB TEMPO 2422/2424 3000 BR BKN008
    VAMDRUPEKVD 
    SWEDEN
    ANGELHOLMESTA231657Z 2318/2321 10012KT 9999 FEW040 TEMPO 2318/2321 4000 SHRA SCT008 BKN020CB PROB40 2318/2321 TSRA
    ARE OSTERSUNDESNZ240400Z 2405/2412 08002KT 0200 FG NSC BECMG 2405/2406 CAVOK
    GOTHENBURG CITYESGP 
    GOTHENBURG LANDVETTERESGGCOR 232356Z 2400/2424 10006KT 9999 SCT040 BKN080 PROB40 2400/2409 RA BKN040CB
    HALMSTADESMT231356Z 2315/2317 11012KT 9999 FEW040 TEMPO 2315/2317 4000 SHRA BKN020CB PROB40 2315/2317 TSRA
    KALMARESMQ240400Z 2405/2412 03007KT 9999 -RA NSC TEMPO 2405/2409 RA BKN040CB
    KIRUNAESNQ240430Z 2405/2412 04003KT CAVOK
    LULEAESPA240330Z 2404/2412 02008KT CAVOK
    MALMOESMSAMD 240135Z 2401/2424 04006KT 9999 BKN020 PROB40 2401/2406 0400 FG RADZ BKN001 TEMPO 2406/2424 4000 BR RA BKN008
    SAABESSL240330Z 2404/2405 08008KT 9999 SCT012
    STOCKHOLM ARLANDAESSAAMD 240358Z 2403/2424 01005KT 5000 BR BKN002 TEMPO 2403/2405 0300 FG SCT002 BECMG 2405/2406 CAVOK
    STOCKHOLM BROMMAESSB240330Z 2404/2412 03008KT 9999 BKN003 BECMG 2405/2407 FEW010
    STOCKHOLM SKAVSTAESKN232330Z 2400/2424 05005KT CAVOK
    UMEAESNU240230Z 2403/2412 35004KT CAVOK
    VISBYESSV240230Z 2403/2412 07007KT CAVOK
    NORWAY
    ANDOYAENAN2400/2424 04005KT CAVOK BECMG 2412/2415 BKN004 TEMPO 2414/2424 0500 FG VV001
    ALTAENAT240200Z 2404/2412 VRB05KT CAVOK BECMG 2409/2411 35010KT
    AROENHF240200Z 2403/2412 VRB05KT CAVOK
    BARDUFOSSENDU2400/2424 VRB05KT 9999 FEW040
    BODOENBO2400/2424 09010KT CAVOK BECMG 2410/2412 02008KT BECMG 2420/2422 09010KT
    EVENESENEV240200Z 2405/2412 VRB05KT CAVOK
    FLESLANDENBR 
    FLOROENFL 
    GARDERMOENENGM2400/2424 08005KT 9999 FEW040TCU SCT050 PROB30 TEMPO 2406/2412 SHRA SCT030CB BKN040
    KARMOYENHD240200Z 2404/2412 VRB05KT 9999 FEW020TCU BKN050
    KJEVIKENCN240200Z 2405/2412 05008KT 9999 SCT030 BKN050 TEMPO 2405/2409 SHRA SCT030CB BKN040
    LANGNESENTC2400/2424 03008KT CAVOK PROB30 2421/2424 0400 FG VV002
    LEIRINENFB 
    LONGYEARENSB2400/2424 25012KT 9999 FEW007 BKN020 TEMPO 2400/2424 BKN007
    NARVIK/FRAMNESENNK 
    ROROSENRO240200Z 2405/2412 11012KT 9999 -SHRA FEW025TCU BKN030 TEMPO 2405/2409 SHRA BKN014 SCT025CB
    RYGGEENRY2400/2424 11008KT CAVOK
    SOLAENZV2400/2424 VRB05KT 9999 SCT050 PROB40 TEMPO 2400/2418 SHRA BKN007 SCT030CB BECMG 2406/2409 33010KT
    VAERNESENVA2400/2424 14010KT 9999 FEW040 TEMPO 2403/2412 16018G28KT
    VIGRAENAL240200Z 2404/2412 VRB05KT 8000 BKN004 TEMPO 2404/2407 0100 FG BKN001 BECMG 2407/2409 BKN020
    FINLAND
    HELSINKIEFET 
    TAMPERE PIRKKALAEFTP240230Z 2403/2503 36004KT CAVOK TEMPO 2407/2415 BKN012
    TURKUEFTU240234Z 2403/2503 35003KT CAVOK
    ICELAND
    AKUREYRIBIAR240420Z 2406/2506 16005KT CAVOK TX20/2412Z TN10/2406Z BECMG 2412/2414 36012KT 9999 FEW035 BECMG 2421/2424 VRB02KT
    EGILSSTADIRBIEG240420Z 2406/2506 VRB02KT CAVOK TX19/2412Z TN08/2406Z PROB40 2406/2408 0500 FG VV002 BECMG 2408/2411 36010KT BECMG 2421/2424 VRB02KT PROB40 TEMPO 2500/2506 0500 FG VV002
    KEFLAVIK INTLBIKF240420Z 2406/2506 13015KT 9999 DZ SCT007 BKN035 TX13/2415Z TN10/2406Z TEMPO 2406/2415 2500 DZ BR OVC002 BECMG 2418/2421 4000 DZ BR BKN004
    REYKJAVIKBIRK240420Z 2406/2506 11012KT 9999 SCT030 BKN055 TX16/2415Z TN11/2505Z
    GREENLAND
    ILULISSAT JAKOBSHAVNBGJN231757Z 2318/2323 36015KT 9999 FEW180 BECMG 2320/2322 12010KT
    KANGERLUSSUAQ S.STROMFBGSF232300Z 2400/2502 08010KT 9999 BKN150 TEMPO 2415/2421 14012G25KT
    KULUSUKBGKK231424Z 2315/2321 VRB08KT 9999 FEW010
    NARSARSUAQBGBW240201Z 2402/2406 06030KT 9999 BKN100 TEMPO 2402/2406 06030G40KT BKN070
    NUUK GODTHAABBGGH232036Z 2321/2401 32005KT 9999 BKN150
    PITUFFIK THULEBGTL240100Z 2401/2507 14012KT 9999 BKN150 QNH2989INS TEMPO 2401/2403 14020G30KT 510004 WND 090V160 TX13/2420Z TN02/2405Z
    SISIMIUT HOLSTEINSBORGBGSS 
    Goto METARs

     

    Other Airports - 24 Jul 2017 - 0448 UTC

    IRELAND
    DUBLINEIDW232300Z 2400/2424 32008KT 9999 SCT040 PROB40 TEMPO 2404/2407 5000 BR BKN005
    SHANNONEINNAMD 240243Z 2402/2424 31010KT 9999 SCT030 TEMPO 2402/2407 0800 FG BKN001 BECMG 2420/2422 27005KT
    CORKEICK232300Z 2400/2424 30006KT 9999 SCT025 BECMG 2406/2408 33012KT
    IRELAND WESTEIKN232300Z 2400/2424 33008KT 9999 FEW040 PROB40 TEMPO 2403/2407 0800 FG BKN002
    POLAND
    LECHA WALESYEPGDAMD 240440Z 2404/2424 VRB05KT 9999 BKN020 PROB40 TEMPO 2404/2408 -SHRA BKN004 BKN012CB BECMG 2406/2408 CAVOK
    BALICEEPKK232330Z 2400/2424 VRB02KT CAVOK TEMPO 2400/2406 1400 BR PROB40 TEMPO 2400/2405 0300 FG BKN001 BECMG 2410/2413 08010KT TEMPO 2414/2424 4000 SHRA BKN020CB PROB40 TEMPO 2414/2424 VRB15G30KT 1500 TSRA
    PYRZOWICEEPKT232330Z 2400/2424 18004KT 9999 FEW040 TEMPO 2400/2406 1400 BR PROB40 TEMPO 2400/2405 0300 FG BKN001 TEMPO 2414/2424 4000 SHRA BKN020CB PROB40 TEMPO 2414/2424 VRB15G30KT 1500 TSRA
    MODLINEPMO232330Z 2400/2424 VRB05KT 3000 BR NSC BECMG 2400/2402 1000 BR TEMPO 2400/2406 0300 FG OVC001 BECMG 2406/2408 CAVOK
    LAWICAEPPO232330Z 2400/2424 20003KT CAVOK TEMPO 2400/2406 2000 BR PROB30 2401/2404 0500 FG TEMPO 2417/2424 4000 RA BKN014CB
    WARSAW CHOPINEPWA232330Z 2400/2424 VRB05KT CAVOK TEMPO 2400/2406 1500 BR PROB40 TEMPO 2401/2406 0500 FG BKN002
    GREECE
    ELEFTHERIOS VENIZELOSLGAV232300Z 2400/2424 VRB05KT 9999 FEW030 BECMG 2404/2406 03014KT BECMG 2415/2417 VRB03KT
    NIKOS KAZANTZAKISLGIR232300Z 2400/2424 31010KT CAVOK TEMPO 2400/2406 VRB05KT BECMG 2405/2407 32010KT
    KOSLGKO232300Z 2400/2424 33014KT CAVOK
    MIKONOSLGMK240200Z 2403/2412 36018KT CAVOK
    DIAGORASLGRP232300Z 2400/2424 24012KT CAVOK
    SOUDALGSA232300Z 2400/2424 30012KT CAVOK BECMG 2409/2411 05010KT BECMG 2415/2417 VRB05KT
    SANTORINILGSR232300Z 2400/2424 35018KT 9999 FEW025 BECMG 2422/2424 28008KT
    MAKEDONIALGTS232300Z 2400/2424 VRB03KT 9999 FEW030 BECMG 2412/2414 18012KT BECMG 2418/2420 VRB03KT
    TURKEY
    ANTALYALTAI232240Z 2400/2424 VRB02KT CAVOK BECMG 2407/2411 16015KT FEW030 BECMG 2414/2418 VRB02KT CAVOK
    ATATURKLTBA232240Z 2400/2506 VRB02KT CAVOK BECMG 2406/2409 04012KT TEMPO 2410/2414 SCT035 BECMG 2418/2421 VRB02KT
    ADNAN MENDERESLTBJ232240Z 2400/2424 36015KT CAVOK BECMG 2419/2422 VRB02KT
    DALAMANLTBS232240Z 2400/2424 VRB02KT CAVOK BECMG 2406/2408 21012KT FEW030 BECMG 2416/2418 VRB02KT CAVOK
    MALTA
    LUQA INTLLMML240500Z 2406/2506 VRB07KT CAVOK BECMG 2415/2418 29012KT 9999 FEW015 PROB30 2415/2506 BKN015
    ISRAEL
    BEN GURIONLLBG232309Z 2400/2424 VRB03KT 9999 SCT024 TEMPO 2400/2406 BKN022 BECMG 2407/2409 30012KT CAVOK BECMG 2415/2417 32005KT 9999 FEW020 BECMG 2419/2421 VRB03KT SCT018 TX33/2412Z TN24/2404Z
    SDE DOVLLSD232311Z 2400/2424 VRB03KT 9999 SCT024 TEMPO 2400/2406 BKN022 BECMG 2407/2409 30012KT FEW030 BECMG 2415/2417 34005KT FEW020 BECMG 2418/2420 VRB03KT SCT018 TX31/2411Z TN26/2404Z
    MOROCCO
    AL MASSIRA INTLGMAD232300Z 2400/2506 20005KT CAVOK BECMG 2412/2414 28012KT BECMG 2418/2420 18006KT
    MOHAMMED V INTLGMMN232300Z 2400/2506 36010KT CAVOK PROB30 TEMPO 2402/2408 VRB02KT 3000 BR SCT008 BECMG 2410/2412 8000 FEW016 BECMG 2414/2416 36016KT CAVOK
    MENARAGMMX232300Z 2400/2506 04006KT 8000 SCT100 TEMPO 2413/2420 34014KT SCT030 FEW033TCU
    EGYPT
    CAIRO INTLHECA240500Z 2406/2512 33010KT CAVOK TEMPO 2406/2410 9999 SCT025 TEMPO 2500/2509 VRB03KT TEMPO 2503/2506 4000 BR NSC
    HURGHADA INTLHEGN240500Z 2406/2512 34015G25KT CAVOK
    LUXOR INTLHELX240500Z 2406/2512 33008KT CAVOK
    SHARM EL SHEIKH INTLHESH240500Z 2406/2512 02015KT CAVOK
    EAST EUROPE
    SOFIALBSF232300Z 2400/2424 VRB04KT 9999 SCT060 TEMPO 2410/2419 VRB18KT 5000 TSRA FEW030CB BKN040
    LARNACALCLK232330Z 2400/2424 31007KT 9999 FEW015 PROB40 TEMPO 2400/2406 5000 BR BKN005 PROB30 TEMPO 2400/2406 0900 BCFG BKN002 BECMG 2408/2411 20013KT BECMG 2417/2419 31007KT
    ZAGREBLDZA232325Z 2400/2424 03005KT CAVOK TX30/2412Z TN18/2403Z BECMG 2409/2411 23008KT PROB40 TEMPO 2412/2418 3000 TSRA FEW040CB SCT045 BECMG 2417/2419 32008KT PROB30 TEMPO 2420/2424 3000 TSRA FEW030CB SCT040
    BUDAPEST LISZT FERENCLHBP232315Z 2400/2424 VRB03KT CAVOK BECMG 2405/2408 09012KT BECMG 2410/2413 14012KT TEMPO 2413/2424 VRB22G40KT 4000 TSRA SCT008 SCT030CB BKN060 BECMG 2416/2419 VRB03KT
    LJUBLJANALJLJ240200Z 2403/2503 12004KT 9999 SCT050 SCT120 BKN250 TEMPO 2403/2406 7000 SHRA SCT045TCU BKN050 TEMPO 2406/2422 VRB15G25KT 5000 TSRA BKN040CB OVC050 BECMG 2418/2421 32010KT TEMPO 2420/2501 32012G22KT BECMG 2500/2503 32005KT
    RUZYNELKPR232300Z 2400/2506 22008KT 9999 SCT040 BECMG 2403/2405 17008KT TEMPO 2412/2503 26014KT 6000 RA BKN025
    HENRI COANDALROP232300Z 2400/2424 06008KT CAVOK PROB30 TEMPO 2411/2417 SCT040CB
    BEOGRADLYBE232300Z 2400/2424 15007KT CAVOK TX36/2414Z TN23/2403Z TEMPO 2417/2420 34015KT 5000 TSRA SCT040CB
    M R STEFANIK INTLLZIB232300Z 2400/2500 34005KT CAVOK PROB40 TEMPO 2400/2407 05010KT -SHRA SCT030 FEW040CB TEMPO 2410/2418 30015G25KT 4000 TSRA BKN025 SCT030CB
    BORYSPIL INTLUKBB232301Z 2400/2424 08003MPS 9999 SCT040 BECMG 2322/2324 13003MPS BECMG 2406/2408 14005G10MPS TEMPO 2412/2418 SCT020CB BKN030 TEMPO 2418/2424 2100 -SHRA BR SCT003 BKN020CB TX28/2412Z TN14/2403Z
    PULKOVOULLI240155Z 2403/2503 27004MPS 9999 BKN011 BKN020 TEMPO 2403/2406 28003G08MPS 2100 -SHRA BKN007 BKN020CB TEMPO 2406/2420 31006G12MPS 3100 -TSRA BKN007 BKN020CB BECMG 2420/2421 35003MPS TEMPO 2420/2503 0500 FG VV002
    MURMANSKULMM 
    KHRABROVOUMKK240200Z 2403/2503 36003G08MPS 9999 BKN011 TEMPO 2403/2406 VRB01MPS 3100 -SHRA BR BKN004 BKN015CB TEMPO 2406/2418 04007MPS BKN004 BKN015CB BECMG 2418/2420 06003G08MPS
    SHEREMETYEVOUUEE240200Z 2403/2503 26004MPS 9999 SCT030 TX21/2413Z TN11/2501Z TEMPO 2406/2415 26009MPS
    VNUKOVOUUWW240158Z 2403/2503 24004MPS 9999 SCT030 TX22/2412Z TN12/2501Z TEMPO 2407/2418 26009MPS BECMG 2420/2422 VRB01MPS



    RocketRoute Online Flight Planning. FREE trial

    ABBREVIATIONS

    -light
    +heavy
    /visual range follows
    A01autosite - no precip sensor
    A02autosite - precip sensor
    ACaltocumulus
    ACCaltocumulus castellanus
    ACSLaltocumulus standing lenticular cloud
    AMDamended
    ASaltastratus
    ASRaltimeter setting region
    AUTOautomated report
    BCpatches
    BECMGbecoming
    BKNbroken (5-7 oktas)
    BLblowing
    BLWbelow
    BRmist
    BTNbetween
    CAVOK+10KM NoCBs NoCloud -5000ft
    CBcumulonimbus cloud
    CBMAMcumulonimbus mammatus cloud
    CCcloud-cloud lightning
    CCSLcirrocumulus standing lenticular cloud
    CGcloud-ground lightning
    CHIcloud-height indicator
    CHINOsky condition at 2nd location not avail
    CIcirrus
    CIGceiling
    CITnear or over large towns
    CLDcloud
    CLRclear
    CLRDcleared contamination
    CONScontinuous
    CORcorrection
    CScirrostratus
    CUcumulus
    DRVR visibility going down
    DPdew point
    DRlow drifting
    DSduststorm
    DSNTdistant
    DUwidespread dust
    DUCdense upper cloud
    DZdrizzle
    Eeast
    EMBDembedded
    FCfunnel cloud
    FCSTforecast
    FEWfew clouds (1-2 oktas)
    FGfog
    FLflight level
    FMfrom
    FROPAfrontal passage
    FRQfrequent
    FTfeet
    FUsmoke
    FZfreezing
    FZRANOfreezing rain sensor out
    Ggust
    GRhail
    GSsmall hail
    HVYheavy
    HZhaze
    ICice crystals, in-cloud lightning
    INTSFintensifying
    IRVRinstrumented RVR
    ISOLisolated
    JTSTjet stream
    KMkilometer
    KMHkilometer per hour
    KTknots
    Lleft runway
    LANinland or over land
    LASTlast observation before break
    LCAlocally
    LDGlanding
    LSTLocal Standard Time
    LSQline squall
    LTGlightning
    LVlight and variable
    LWRlower
    Mminus
    MBmillibars
    METARaviation routine weather
    MIshallow
    MODmoderate
    MONabove or covering mountains
    MOVmoved/moving/movement
    MPSmeters per second
    MSminus
    MSLmean sea level
    MTmountains
    MTWmountain waves
    Nnorth
    N/Anot applicable
    NATnorth atlantic
    NCDno cloud detected
    NDVno directional variation
    NSWno significant weather
    NEnortheast
    NOSIGno significant change expected
    NOSPECIno SPECI reports are taken
    NWnorthwest
    NSCno significant cloud
    NSWno significant weather
    OCNLoccasional
    OVCovercast (8 oktas)
    OHDoverhead
    Pgreater than (plus)
    PEice pellets
    PK WNDpeak wind
    PNOprecipitation amount not available
    POdust/sand whirls (dust devils)
    PRpartial
    PROP30probability 30%
    PROP40probability 40%
    PRESFRpressure falling rapidly
    PRESRRpressure rising rapidly
    PSplus
    PWINOprecipitation identifier sensor not avail
    PYspray
    Rright runway
    RArain
    RMKremarks
    RRRocket Route
    RVRRunway Visual Range
    RWYrunway
    RVRNORVR system not available
    Ssouth
    SAsand
    SCSLstratocumulus standing lenticular cloud
    SCTscattered (3-4 oktas)
    SEsoutheast
    SEVsevere
    SFCsurface
    SGsnow grains
    SHshower(s)
    SKCsky clear
    SLPsea-level pressure
    SLPNOsea-level pressure not available
    SMstatute miles
    SNsnow
    SNOCLOrunway closed due to contamination
    SNINCRsnow increasing rapidly
    SPECIan unscheduled report taken
    SQsqualls
    SSsandstorm
    STNRstationary
    SWsouthwest
    TAFterminal aerodrome forecast
    TKOFtakeoff
    TCUtowering cumulus
    TLuntil
    TOPcloud top
    TROPtropopause
    TSthunderstorm
    TSNOthunderstorm information not available
    TWRtower
    URVR visibility going up
    UPunknown precipitation
    UTCtCoordinated Universal Time
    Vvariable
    VAvolcanic ash
    VCin the vicinity
    VISvisibility
    VISNOvisibility at secondary location not avail
    VRBvariable
    VSPvertical speed
    VVvertical visibility
    Wwest
    WG/SOWorking Group for Surface Observations
    WNDwind
    WSPDwind speed
    WSwind shear
    WSHFTwind shift
    WXweather
    Zzulu utc time

    RUNWAY REPORTS

    METAR Runway Reports may include runway reports which contain information about snow/water coverage and friction coefficient.
    A runway report consists of eight digits in five groups (RRRRERCReReRBRBR) with the following interpretation:

    RRRR

    Runway designator. The numerical identifier of the runway in question.
    88 means all runways, 99 indicates repetition of previous report.

    If there are two parallel runways, the right one is indicated by adding 50
    to its number. For example, runway 04L (or 04) is denoted by 04, whereas 54 means runway 04R.

    ER

    Type of deposit on runway.

    • 0: Clear and dry
    • 1: Damp
    • 2: Wet or puddles
    • 3: Frost
    • 4: Dry snow
    • 5: Wet snow
    • 6: Slush
    • 7: Ice
    • 8: Compacted snow
    • 9: Frozen ridges
    • /: Not reported
    CR

    Extent of deposit.

    • 1: 1-10%
    • 2: 11-25%
    • 5: 26-50%
    • 9: 51-100%
    eReR

    Depth of deposit.

    • 00: Less than 1mm
    • 01..90: depth in mm
    • 92: 10 cm
    • 93: 15 cm
    • 94: 20 cm
    • 95: 25 cm
    • 96: 30 cm
    • 97: 35 cm
    • 98: 40 cm
    • 99: Runway not in use
    BRBR

    Friction coefficient or braking action

    • 01..90: Friction coefficient times 100
      Example 37 indicates a friction coefficient of 0.37
    • 91: Poor braking action
    • 92: Poor/medium braking action
    • 93: Medium braking action
    • 94: Medium/good braking action
    • 95: Good braking action
    • 99: Unreliable measurement
    • //: Not given

    Note: CLRD may replace elements t, e and dd if the runway has been cleared of deposits. For example, 54CLRD95 means runway 04R cleared, braking action good.


    Military METAR Colour Codes

    BlackAirfield closed for non-Met reasons
    RED RedCloud under 200ft, and/or Visibility under 800m
    AMB AmberBetter than Red, but cloud under 300ft, and/or Visibility under 1600m
    YLO YellowBetter than Amber, but cloud under 700ft, and/or Visibility under 3700m.
    GRE GreenBetter than Yellow, but cloud under 1500ft, and/or Visibility under 5km
    WHT WhiteBetter than Green, but Cloud under 2500ft, and/or Visibility under 8km
    BLU BlueCloud 2500ft or above and Visibility 8km or more
    Cloud in this case is the lowest cloudbase designated as SCATTERED or worse.


    NOTE use of any of these pages are your own responsibility
    Always double check with other sources.


    Fly Smart

    Worldwide Flight Planning, Briefings and Filing

    Start with FREE Membership